Yakima Air Terminal McAllister Field Yakima US
ICAO: KYKM
IATA: YKM
Category: Medium
Scheduled Services: Yes

Elevation: 1099 ft
TransAlt. 18000 ft.

Airport Communications:
CHINOOK APP/DEP:123.8
ATIS:125.25
CLNC DEL:121.9
CTAF:133.25
GND:121.9
SEATTLE RDO:122.5
TWR:133.25
UNICOM:122.95

KYKM Zoom In..

If you have problems with the map follow the link
https://www.worldairports.se/pages/airport.php?
ICAO=KYKM

Runways:

(A) RW 04 length 3835 ft width 150 ft
---- / hdg 44

(B) RW 09 length 7604 ft width 150 ft
---- / hdg 94

(C) RW 22 length 3835 ft width 150 ft
---- / hdg 224

(D) RW 27 length 7604 ft width 150 ft
ILS 110.10 / hdg 274

Location; KYKM
Day. 11 / Time. 13.53 Zulu
* Altimeter: 30.11
* Temperature: 01° c. 33.8°f.
* Wind from: 000° Speed 00 kn.
Dewpoint: -01° c.
Visibility: 5 Statute Miles.
Clouds: Overcast 700 ft.
Conditions: Mist.

KYKM 111353Z 00000KT 5SM BR OVC007 01/M01 A3011 RMK AO2 SLP209 T00061006


Wind - Calm.

 
 
jpsmedia worldairports.se 2019   terms of use